Flight Track Log - Related Links

Times and Time Zones

All times are in EDT time to prevent confusion due to time zone crossing. See the JZA8474 flight status page for this flight to view local times or setup timezone preferences in your user account.

Time Position Orientation Groundspeed Altitude Reporting Facility
EDT Latitude Longitude Course Direction KTS MPH feet Rate Location/Type
Tue 03:09:29 PM 50.4500 -115.6333 50° Northeast 300 345 22,800  Level Vancouver Center
Tue 03:10:27 PM 50.4833 -115.6000 32° Northeast 310 357 21,700 -1,119 Descending Edmonton Center
Tue 03:11:27 PM 50.5500 -115.4667 52° Northeast 330 380 20,600 -1,100 Descending Edmonton Center
Tue 03:12:27 PM 50.6167 -115.3833 38° Northeast 320 368 19,500 -1,100 Descending Edmonton Center
Tue 03:13:27 PM 50.6667 -115.2833 52° Northeast 310 357 18,400 -1,050 Descending Edmonton Center
Tue 03:14:27 PM 50.7333 -115.2000 38° Northeast 300 345 17,400 -984 Descending Edmonton Center
Tue 03:15:00 PM 50.6752 -115.2082 50° Northeast  Level FlightAware Approximate
Tue 03:15:29 PM 50.8000 -115.0333 58° Northeast 290 334 16,400  Level Vancouver Center
Tue 03:16:29 PM 50.8333 -114.9333 62° Northeast 280 322 15,500 -915 Descending Vancouver Center
Tue 03:17:27 PM 50.8667 -114.8667 52° Northeast 290 334 14,600 -864 Descending Edmonton Center
Tue 03:18:27 PM 50.8833 -114.7500 77° East 280 322 13,800 -850 Descending Edmonton Center
Tue 03:19:27 PM 50.9167 -114.6500 62° Northeast 270 311 12,900 -1,150 Descending Edmonton Center
Tue 03:20:27 PM 50.9333 -114.5500 75° East 270 311 11,500 -1,350 Descending Edmonton Center
Tue 03:21:27 PM 50.9667 -114.4167 68° East 270 311 10,200 -1,200 Descending Edmonton Center
Tue 03:22:27 PM 51.0000 -114.3167 62° Northeast 240 276 9,100 -1,050 Descending Edmonton Center
Tue 03:23:27 PM 50.9500 -114.2500 140° Southeast 230 265 8,100 -750 Descending Edmonton Center
Tue 03:24:27 PM 50.9000 -114.2333 168° South 230 265 7,600 -700 Descending Edmonton Center
Tue 03:25:27 PM 50.8333 -114.1667 148° Southeast 230 265 6,700 -800 Descending Edmonton Center
Tue 03:26:27 PM 50.8167 -114.0833 108° East 240 276 6,000 -350 Descending Edmonton Center
Tue 03:27:27 PM 50.8667 -114.0333 32° Northeast 200 230 6,000  Level Edmonton Center
Tue 03:28:27 PM 50.9167 -114.0500 348° North 210 242 6,000 -300 Level Edmonton Center
Tue 03:29:27 PM 50.9667 -114.0333 12° North 190 219 5,400 -750 Descending Edmonton Center
Tue 03:30:27 PM 51.0167 -114.0500 348° North 170 196 4,500 -900 Descending Edmonton Center

Login

Don't have an account? Register now (free) for customized features, flight alerts, and more!